KFST/FST METAR and TAF weather

Enter ICAO airport designator
Station Type Date Time Source
KFST METAR 2021/09/20 05:53 UTC NOAA

KFST 200553Z AUTO 16011KT 10SM CLR 26/12 A2993 RMK AO2 SLP082 T02560122 10344 20256 403610189 58002 $


Station Type Date Time Source
KFST Decoded METAR 2021/09/20 05:53 UTC NOAA

FORT STOCKTON PECOS CO AIRPORT , TX, United States (KFST) 30-55N 102-55W 918M
Sep 20, 2021 - 01:53 AM EDT / 2021.09.20 0553 UTC
Wind: from the SSE (160 degrees) at 13 MPH (11 KT):0
Visibility: 10 mile(s):0
Sky conditions: clear
Temperature: 78.1 F (25.6 C)
Dew Point: 54.0 F (12.2 C)
Relative Humidity: 43%
Pressure (altimeter): 29.93 in. Hg (1013 hPa)
Pressure tendency: 0.01 inches (0.2 hPa) lower than three hours ago
ob: KFST 200553Z AUTO 16011KT 10SM CLR 26/12 A2993 RMK AO2 SLP082 T02560122 10344 20256 403610189 58002
cycle: 6

Station Type Date Time Source
KFST TAF 2021/09/20 06:30 UTC NOAA

TAF KFST 200529Z 2006/2106 17011KT P6SM FEW100
FM201800 30008KT P6SM FEW120

Example: see airport list